»·PEaware :: N885LJ KSNA-KRNM

N885LJ :: KSNA-KRNM

FLIGHT INFORMATION

Flight Status: Arrived
Operator: Privately registered:
United States
More flights under this callsign
Pilot: Alec D. (17934)
Aircraft: BEECH AIRCRAFT BONANZA
(BE35)
More flights by this aircraft type
Origin: KSNA John Wayne-Orange Co
United States
Destination: KRNM Ramona
United States
More flights between these airports :: More routes between these airports
Route: V23 OCN V208 JLI
File this flight plan on PilotEdge
Remarks:
Altitude:
(Current/Filed)
7,000ft
Speed:
(Current/Filed)
160kts
Departed: 18-Apr-20 04:26 PM
Arrived: 18-Apr-20 05:14 PM
Distance/Time
Traveled:
61nm/0:48
Distance/Time
To Go:
Arrived

Flight Plot

Page will automatically refresh every two minutes.


Map Options




Map Legend


Flown Route
Filed Route
Departure Airport
Arrival Airport
Navaid (VOR, NDB)
Fix

Horizontal Profiles

Position Reports

Time Latitude Longitude Heading Altitude Ground
Speed
18-Apr-20 15:58 33.666435 -117.873047 219 59ft 0kts
18-Apr-20 15:59 33.666435 -117.873047 219 59ft 0kts
18-Apr-20 16:00 33.666435 -117.873047 219 59ft 0kts
18-Apr-20 16:01 33.666435 -117.873047 219 59ft 0kts
18-Apr-20 16:02 33.666435 -117.873047 219 59ft 0kts
18-Apr-20 16:03 33.666435 -117.873047 219 59ft 0kts
18-Apr-20 16:04 33.666435 -117.873047 219 59ft 0kts
18-Apr-20 16:05 33.666430 -117.873052 219 59ft 0kts
18-Apr-20 16:06 33.666425 -117.873057 219 59ft 0kts
18-Apr-20 16:07 33.666420 -117.873062 219 59ft 0kts
18-Apr-20 16:08 33.666416 -117.873066 219 59ft 0kts
18-Apr-20 16:09 33.666412 -117.873070 219 59ft 0kts
18-Apr-20 16:10 33.666408 -117.873073 219 59ft 0kts
18-Apr-20 16:12 33.666405 -117.873077 219 59ft 0kts
18-Apr-20 16:13 33.666401 -117.873081 219 59ft 0kts
18-Apr-20 16:14 33.666397 -117.873084 219 59ft 0kts
18-Apr-20 16:15 33.666393 -117.873089 219 59ft 0kts
18-Apr-20 16:16 33.666381 -117.873101 219 59ft 0kts
18-Apr-20 16:17 33.666376 -117.873105 219 59ft 0kts
18-Apr-20 16:18 33.666372 -117.873110 219 59ft 0kts
18-Apr-20 16:19 33.666455 -117.873419 6 59ft 8kts
18-Apr-20 16:20 33.669290 -117.871055 38 59ft 14kts
18-Apr-20 16:21 33.672248 -117.868070 48 59ft 12kts
18-Apr-20 16:22 33.674308 -117.866865 28 59ft 7kts
18-Apr-20 16:23 33.676673 -117.865472 26 59ft 11kts
18-Apr-20 16:24 33.679665 -117.863791 333 59ft 5kts
18-Apr-20 16:25 33.679737 -117.863855 315 59ft 3kts
18-Apr-20 16:26 33.672935 -117.868519 206 106ft 84kts
18-Apr-20 16:27 33.648340 -117.876358 192 1084ft 95kts
18-Apr-20 16:28 33.622016 -117.879630 192 2053ft 94kts
18-Apr-20 16:28 33.599685 -117.881303 186 2872ft 97kts
18-Apr-20 16:30 33.565877 -117.884327 188 3880ft 108kts
18-Apr-20 16:31 33.545790 -117.871048 116 4731ft 113kts
18-Apr-20 16:32 33.533523 -117.836281 113 5623ft 114kts
18-Apr-20 16:32 33.523002 -117.807097 113 6328ft 115kts
18-Apr-20 16:34 33.507101 -117.764650 112 7000ft 137kts
18-Apr-20 16:35 33.490263 -117.719026 114 7016ft 156kts
18-Apr-20 16:35 33.468189 -117.683894 133 7009ft 162kts
18-Apr-20 16:36 33.435819 -117.645456 135 7008ft 164kts
18-Apr-20 16:37 33.403034 -117.607049 135 7003ft 164kts
18-Apr-20 16:38 33.370389 -117.568900 136 7010ft 164kts
18-Apr-20 16:39 33.337549 -117.530554 136 7015ft 164kts
18-Apr-20 16:40 33.304782 -117.492360 136 7007ft 165kts
18-Apr-20 16:41 33.271962 -117.454122 136 7012ft 164kts
18-Apr-20 16:42 33.240910 -117.414315 110 7010ft 165kts
18-Apr-20 16:43 33.233899 -117.360282 96 7007ft 165kts
18-Apr-20 16:44 33.227516 -117.305995 96 7006ft 165kts
18-Apr-20 16:45 33.221081 -117.251547 96 7002ft 165kts
18-Apr-20 16:46 33.214653 -117.197281 96 7010ft 164kts
18-Apr-20 16:47 33.208199 -117.143041 96 7007ft 165kts
18-Apr-20 16:48 33.201697 -117.088630 97 7001ft 165kts
18-Apr-20 16:49 33.195204 -117.034505 96 6998ft 165kts
18-Apr-20 16:50 33.188626 -116.979860 97 6998ft 165kts
18-Apr-20 16:51 33.182086 -116.925749 97 7006ft 165kts
18-Apr-20 16:52 33.175449 -116.871024 96 7108ft 167kts
18-Apr-20 16:53 33.169341 -116.820977 97 7947ft 142kts
18-Apr-20 16:54 33.163017 -116.768876 96 8037ft 166kts
18-Apr-20 16:55 33.156113 -116.712262 97 8026ft 173kts
18-Apr-20 16:56 33.137933 -116.662221 110 8144ft 160kts
18-Apr-20 16:57 33.138599 -116.607897 82 8011ft 164kts
18-Apr-20 16:58 33.139821 -116.553498 89 8001ft 164kts
18-Apr-20 16:59 33.138844 -116.499025 89 7930ft 168kts
18-Apr-20 17:00 33.138521 -116.442078 73 7663ft 170kts
18-Apr-20 17:01 33.166977 -116.447979 268 7603ft 147kts
18-Apr-20 17:02 33.158023 -116.495601 259 7624ft 145kts
18-Apr-20 17:03 33.149007 -116.542018 259 7654ft 142kts
18-Apr-20 17:04 33.139757 -116.587977 252 7662ft 144kts
18-Apr-20 17:05 33.125145 -116.634246 251 7357ft 155kts
18-Apr-20 17:06 33.109995 -116.681867 251 6836ft 151kts
18-Apr-20 17:07 33.097218 -116.721933 251 6398ft 126kts
18-Apr-20 17:08 33.084373 -116.762127 251 5575ft 130kts
18-Apr-20 17:09 33.071920 -116.802097 253 4943ft 125kts
18-Apr-20 17:10 33.060851 -116.842420 257 4247ft 125kts
18-Apr-20 17:11 33.050903 -116.875677 265 3066ft 90kts
18-Apr-20 17:12 33.038665 -116.897092 247 1758ft 80kts
18-Apr-20 17:13 33.038995 -116.914163 281 1396ft 9kts
18-Apr-20 17:14 33.039530 -116.914742 5 1396ft 0kts
18-Apr-20 17:15 33.039660 -116.914693 48 1396ft 3kts
18-Apr-20 17:16 33.039313 -116.912071 100 1396ft 15kts
18-Apr-20 17:17 33.039578 -116.909642 98 1396ft 0kts

Navigation Log

Ident Type
Flight plan parsing failed, navigation log unavailable